sensor_id;sensor_type;location;lat;lon;timestamp;P1;durP1;ratioP1;P2;durP2;ratioP2
24743;SDS011;12844;52.110;5.548;2022-12-07T00:03:43;3.25;;;1.30;;
24743;SDS011;12844;52.110;5.548;2022-12-07T00:06:11;3.22;;;1.30;;
24743;SDS011;12844;52.110;5.548;2022-12-07T00:08:38;3.03;;;1.30;;
24743;SDS011;12844;52.110;5.548;2022-12-07T00:11:05;2.40;;;1.48;;
24743;SDS011;12844;52.110;5.548;2022-12-07T00:13:38;2.90;;;1.40;;
24743;SDS011;12844;52.110;5.548;2022-12-07T00:16:06;3.97;;;2.40;;
24743;SDS011;12844;52.110;5.548;2022-12-07T00:18:33;4.30;;;1.55;;
24743;SDS011;12844;52.110;5.548;2022-12-07T00:21:00;3.67;;;1.40;;
24743;SDS011;12844;52.110;5.548;2022-12-07T00:23:30;3.13;;;1.40;;
24743;SDS011;12844;52.110;5.548;2022-12-07T00:25:55;5.72;;;1.42;;
24743;SDS011;12844;52.110;5.548;2022-12-07T00:28:27;3.95;;;1.65;;
24743;SDS011;12844;52.110;5.548;2022-12-07T00:30:58;4.05;;;1.25;;
24743;SDS011;12844;52.110;5.548;2022-12-07T00:33:28;1.80;;;1.30;;
24743;SDS011;12844;52.110;5.548;2022-12-07T00:35:57;2.65;;;1.50;;
24743;SDS011;12844;52.110;5.548;2022-12-07T00:38:23;2.33;;;1.20;;
24743;SDS011;12844;52.110;5.548;2022-12-07T00:40:56;2.40;;;1.38;;
24743;SDS011;12844;52.110;5.548;2022-12-07T00:43:26;2.40;;;1.23;;
24743;SDS011;12844;52.110;5.548;2022-12-07T00:45:52;2.60;;;1.52;;
24743;SDS011;12844;52.110;5.548;2022-12-07T00:48:18;2.45;;;1.20;;
24743;SDS011;12844;52.110;5.548;2022-12-07T00:50:44;2.70;;;1.30;;
24743;SDS011;12844;52.110;5.548;2022-12-07T00:53:09;2.60;;;1.23;;
24743;SDS011;12844;52.110;5.548;2022-12-07T00:55:35;1.77;;;1.23;;
24743;SDS011;12844;52.110;5.548;2022-12-07T00:58:01;2.17;;;1.40;;
24743;SDS011;12844;52.110;5.548;2022-12-07T01:00:27;1.80;;;1.15;;
24743;SDS011;12844;52.110;5.548;2022-12-07T01:02:53;2.85;;;1.50;;
24743;SDS011;12844;52.110;5.548;2022-12-07T01:05:18;1.85;;;1.30;;
24743;SDS011;12844;52.110;5.548;2022-12-07T01:07:44;1.85;;;1.30;;
24743;SDS011;12844;52.110;5.548;2022-12-07T01:10:11;2.45;;;1.40;;
24743;SDS011;12844;52.110;5.548;2022-12-07T01:12:37;3.28;;;1.50;;
24743;SDS011;12844;52.110;5.548;2022-12-07T01:15:03;2.17;;;1.38;;
24743;SDS011;12844;52.110;5.548;2022-12-07T01:17:29;1.55;;;1.17;;
24743;SDS011;12844;52.110;5.548;2022-12-07T01:19:55;2.63;;;1.30;;
24743;SDS011;12844;52.110;5.548;2022-12-07T01:22:20;3.20;;;1.33;;
24743;SDS011;12844;52.110;5.548;2022-12-07T01:24:46;3.10;;;1.50;;
24743;SDS011;12844;52.110;5.548;2022-12-07T01:27:12;2.67;;;1.35;;
24743;SDS011;12844;52.110;5.548;2022-12-07T01:29:38;2.08;;;1.40;;
24743;SDS011;12844;52.110;5.548;2022-12-07T01:32:04;1.80;;;1.20;;
24743;SDS011;12844;52.110;5.548;2022-12-07T01:34:29;2.65;;;1.30;;
24743;SDS011;12844;52.110;5.548;2022-12-07T01:36:55;3.50;;;1.52;;
24743;SDS011;12844;52.110;5.548;2022-12-07T01:39:20;2.70;;;1.20;;
24743;SDS011;12844;52.110;5.548;2022-12-07T01:41:46;1.95;;;1.10;;
24743;SDS011;12844;52.110;5.548;2022-12-07T01:44:13;2.97;;;1.80;;
24743;SDS011;12844;52.110;5.548;2022-12-07T01:47:02;2.25;;;1.33;;
24743;SDS011;12844;52.110;5.548;2022-12-07T01:49:39;1.60;;;1.15;;
24743;SDS011;12844;52.110;5.548;2022-12-07T01:54:45;1.58;;;1.23;;
24743;SDS011;12844;52.110;5.548;2022-12-07T01:57:12;2.38;;;1.08;;
24743;SDS011;12844;52.110;5.548;2022-12-07T01:59:40;2.22;;;1.45;;
24743;SDS011;12844;52.110;5.548;2022-12-07T02:02:10;2.28;;;1.30;;
24743;SDS011;12844;52.110;5.548;2022-12-07T02:04:43;1.73;;;1.13;;
24743;SDS011;12844;52.110;5.548;2022-12-07T02:07:10;2.10;;;1.20;;
24743;SDS011;12844;52.110;5.548;2022-12-07T02:09:35;2.47;;;1.20;;
24743;SDS011;12844;52.110;5.548;2022-12-07T02:12:01;1.67;;;1.10;;
24743;SDS011;12844;52.110;5.548;2022-12-07T02:14:27;1.80;;;1.20;;
24743;SDS011;12844;52.110;5.548;2022-12-07T02:25:57;1.55;;;1.02;;
24743;SDS011;12844;52.110;5.548;2022-12-07T02:28:37;1.80;;;1.30;;
24743;SDS011;12844;52.110;5.548;2022-12-07T02:31:19;1.75;;;1.30;;
24743;SDS011;12844;52.110;5.548;2022-12-07T02:33:49;2.42;;;1.02;;
24743;SDS011;12844;52.110;5.548;2022-12-07T02:36:27;1.77;;;1.00;;
24743;SDS011;12844;52.110;5.548;2022-12-07T02:38:59;2.42;;;1.15;;
24743;SDS011;12844;52.110;5.548;2022-12-07T02:41:35;1.42;;;1.00;;
24743;SDS011;12844;52.110;5.548;2022-12-07T02:44:27;1.92;;;1.10;;
24743;SDS011;12844;52.110;5.548;2022-12-07T02:46:59;2.08;;;1.02;;
24743;SDS011;12844;52.110;5.548;2022-12-07T02:49:28;2.58;;;1.10;;
24743;SDS011;12844;52.110;5.548;2022-12-07T02:51:55;1.58;;;1.02;;
24743;SDS011;12844;52.110;5.548;2022-12-07T02:54:20;2.35;;;1.38;;
24743;SDS011;12844;52.110;5.548;2022-12-07T02:56:48;1.45;;;1.00;;
24743;SDS011;12844;52.110;5.548;2022-12-07T03:07:20;2.38;;;1.10;;
24743;SDS011;12844;52.110;5.548;2022-12-07T03:10:15;2.03;;;1.10;;
24743;SDS011;12844;52.110;5.548;2022-12-07T03:18:03;1.80;;;1.33;;
24743;SDS011;12844;52.110;5.548;2022-12-07T03:20:32;2.80;;;1.30;;
24743;SDS011;12844;52.110;5.548;2022-12-07T03:23:02;1.27;;;0.82;;
24743;SDS011;12844;52.110;5.548;2022-12-07T03:25:31;1.23;;;0.90;;
24743;SDS011;12844;52.110;5.548;2022-12-07T03:28:00;1.35;;;0.90;;
24743;SDS011;12844;52.110;5.548;2022-12-07T03:30:30;1.55;;;0.88;;
24743;SDS011;12844;52.110;5.548;2022-12-07T03:33:03;1.05;;;0.88;;
24743;SDS011;12844;52.110;5.548;2022-12-07T03:35:51;1.90;;;1.02;;
24743;SDS011;12844;52.110;5.548;2022-12-07T03:38:37;1.70;;;1.00;;
24743;SDS011;12844;52.110;5.548;2022-12-07T03:41:14;2.17;;;1.00;;
24743;SDS011;12844;52.110;5.548;2022-12-07T03:43:47;1.80;;;1.05;;
24743;SDS011;12844;52.110;5.548;2022-12-07T03:46:33;1.10;;;0.75;;
24743;SDS011;12844;52.110;5.548;2022-12-07T03:52:07;1.77;;;1.00;;
24743;SDS011;12844;52.110;5.548;2022-12-07T03:54:52;1.60;;;0.93;;
24743;SDS011;12844;52.110;5.548;2022-12-07T03:57:25;1.42;;;1.05;;
24743;SDS011;12844;52.110;5.548;2022-12-07T03:59:54;1.10;;;0.77;;
24743;SDS011;12844;52.110;5.548;2022-12-07T04:02:21;1.95;;;0.90;;
24743;SDS011;12844;52.110;5.548;2022-12-07T04:04:48;1.15;;;0.88;;
24743;SDS011;12844;52.110;5.548;2022-12-07T04:07:14;1.35;;;0.80;;
24743;SDS011;12844;52.110;5.548;2022-12-07T04:09:39;1.92;;;1.10;;
24743;SDS011;12844;52.110;5.548;2022-12-07T04:12:05;2.10;;;0.90;;
24743;SDS011;12844;52.110;5.548;2022-12-07T04:14:30;2.70;;;0.90;;
24743;SDS011;12844;52.110;5.548;2022-12-07T04:16:57;1.45;;;0.80;;
24743;SDS011;12844;52.110;5.548;2022-12-07T04:19:24;1.42;;;0.90;;
24743;SDS011;12844;52.110;5.548;2022-12-07T04:21:51;1.70;;;0.80;;
24743;SDS011;12844;52.110;5.548;2022-12-07T04:24:17;1.70;;;0.90;;
24743;SDS011;12844;52.110;5.548;2022-12-07T04:26:43;1.73;;;0.90;;
24743;SDS011;12844;52.110;5.548;2022-12-07T04:29:09;1.73;;;0.90;;
24743;SDS011;12844;52.110;5.548;2022-12-07T04:31:35;1.38;;;0.80;;
24743;SDS011;12844;52.110;5.548;2022-12-07T04:34:01;1.20;;;0.80;;
24743;SDS011;12844;52.110;5.548;2022-12-07T04:36:26;1.65;;;0.98;;
24743;SDS011;12844;52.110;5.548;2022-12-07T04:38:53;0.95;;;0.60;;
24743;SDS011;12844;52.110;5.548;2022-12-07T04:41:19;2.05;;;0.80;;
24743;SDS011;12844;52.110;5.548;2022-12-07T04:43:51;1.25;;;0.85;;
24743;SDS011;12844;52.110;5.548;2022-12-07T04:46:21;1.30;;;0.70;;
24743;SDS011;12844;52.110;5.548;2022-12-07T04:48:47;1.90;;;0.80;;
24743;SDS011;12844;52.110;5.548;2022-12-07T04:51:13;1.77;;;0.80;;
24743;SDS011;12844;52.110;5.548;2022-12-07T04:53:43;1.67;;;0.70;;
24743;SDS011;12844;52.110;5.548;2022-12-07T04:56:08;1.23;;;0.85;;
24743;SDS011;12844;52.110;5.548;2022-12-07T04:58:34;1.85;;;0.77;;
24743;SDS011;12844;52.110;5.548;2022-12-07T05:00:59;2.08;;;0.80;;
24743;SDS011;12844;52.110;5.548;2022-12-07T05:03:25;2.40;;;0.80;;
24743;SDS011;12844;52.110;5.548;2022-12-07T05:05:50;1.50;;;0.65;;
24743;SDS011;12844;52.110;5.548;2022-12-07T05:08:16;1.10;;;0.70;;
24743;SDS011;12844;52.110;5.548;2022-12-07T05:10:41;1.17;;;0.70;;
24743;SDS011;12844;52.110;5.548;2022-12-07T05:13:07;1.50;;;0.80;;
24743;SDS011;12844;52.110;5.548;2022-12-07T05:15:32;1.08;;;0.60;;
24743;SDS011;12844;52.110;5.548;2022-12-07T05:17:58;0.98;;;0.70;;
24743;SDS011;12844;52.110;5.548;2022-12-07T05:20:24;1.00;;;0.60;;
24743;SDS011;12844;52.110;5.548;2022-12-07T05:22:49;0.85;;;0.60;;
24743;SDS011;12844;52.110;5.548;2022-12-07T05:25:15;1.50;;;0.60;;
24743;SDS011;12844;52.110;5.548;2022-12-07T05:27:40;1.67;;;0.70;;
24743;SDS011;12844;52.110;5.548;2022-12-07T05:30:06;1.23;;;0.70;;
24743;SDS011;12844;52.110;5.548;2022-12-07T05:32:32;1.33;;;0.70;;
24743;SDS011;12844;52.110;5.548;2022-12-07T05:34:57;1.13;;;0.60;;
24743;SDS011;12844;52.110;5.548;2022-12-07T05:37:23;1.92;;;0.73;;
24743;SDS011;12844;52.110;5.548;2022-12-07T05:39:48;1.00;;;0.63;;
24743;SDS011;12844;52.110;5.548;2022-12-07T05:42:14;1.20;;;0.60;;
24743;SDS011;12844;52.110;5.548;2022-12-07T05:44:40;1.65;;;0.60;;
24743;SDS011;12844;52.110;5.548;2022-12-07T05:47:07;1.52;;;0.60;;
24743;SDS011;12844;52.110;5.548;2022-12-07T05:49:33;0.93;;;0.60;;
24743;SDS011;12844;52.110;5.548;2022-12-07T05:51:58;1.30;;;0.75;;
24743;SDS011;12844;52.110;5.548;2022-12-07T05:54:24;1.35;;;0.68;;
24743;SDS011;12844;52.110;5.548;2022-12-07T05:56:50;1.48;;;0.70;;
24743;SDS011;12844;52.110;5.548;2022-12-07T05:59:15;0.98;;;0.52;;
24743;SDS011;12844;52.110;5.548;2022-12-07T06:01:47;1.07;;;0.60;;
24743;SDS011;12844;52.110;5.548;2022-12-07T06:04:13;1.50;;;0.60;;
24743;SDS011;12844;52.110;5.548;2022-12-07T06:06:39;0.73;;;0.50;;
24743;SDS011;12844;52.110;5.548;2022-12-07T06:09:04;1.25;;;0.60;;
24743;SDS011;12844;52.110;5.548;2022-12-07T06:11:30;1.42;;;0.60;;
24743;SDS011;12844;52.110;5.548;2022-12-07T06:14:14;1.13;;;0.50;;
24743;SDS011;12844;52.110;5.548;2022-12-07T06:16:39;1.38;;;0.60;;
24743;SDS011;12844;52.110;5.548;2022-12-07T06:19:05;0.80;;;0.50;;
24743;SDS011;12844;52.110;5.548;2022-12-07T06:21:31;0.70;;;0.45;;
24743;SDS011;12844;52.110;5.548;2022-12-07T06:23:56;1.30;;;0.50;;
24743;SDS011;12844;52.110;5.548;2022-12-07T06:26:22;0.90;;;0.50;;
24743;SDS011;12844;52.110;5.548;2022-12-07T06:28:47;1.75;;;0.60;;
24743;SDS011;12844;52.110;5.548;2022-12-07T06:31:13;1.08;;;0.55;;
24743;SDS011;12844;52.110;5.548;2022-12-07T06:33:38;1.45;;;0.43;;
24743;SDS011;12844;52.110;5.548;2022-12-07T06:36:04;1.23;;;0.50;;
24743;SDS011;12844;52.110;5.548;2022-12-07T06:38:30;0.75;;;0.50;;
24743;SDS011;12844;52.110;5.548;2022-12-07T06:40:55;1.52;;;0.50;;
24743;SDS011;12844;52.110;5.548;2022-12-07T06:43:21;0.95;;;0.60;;
24743;SDS011;12844;52.110;5.548;2022-12-07T06:45:46;1.45;;;0.60;;
24743;SDS011;12844;52.110;5.548;2022-12-07T06:48:12;1.13;;;0.60;;
24743;SDS011;12844;52.110;5.548;2022-12-07T06:50:37;2.05;;;0.63;;
24743;SDS011;12844;52.110;5.548;2022-12-07T06:53:03;1.63;;;0.60;;
24743;SDS011;12844;52.110;5.548;2022-12-07T06:55:28;1.02;;;0.50;;
24743;SDS011;12844;52.110;5.548;2022-12-07T06:57:54;1.63;;;0.40;;
24743;SDS011;12844;52.110;5.548;2022-12-07T07:00:19;1.52;;;0.52;;
24743;SDS011;12844;52.110;5.548;2022-12-07T07:02:45;0.98;;;0.60;;
24743;SDS011;12844;52.110;5.548;2022-12-07T07:15:32;0.88;;;0.50;;
24743;SDS011;12844;52.110;5.548;2022-12-07T07:17:58;0.90;;;0.50;;
24743;SDS011;12844;52.110;5.548;2022-12-07T07:20:24;0.93;;;0.57;;
24743;SDS011;12844;52.110;5.548;2022-12-07T07:22:49;0.82;;;0.40;;
24743;SDS011;12844;52.110;5.548;2022-12-07T07:25:15;1.73;;;0.50;;
24743;SDS011;12844;52.110;5.548;2022-12-07T07:30:11;1.15;;;0.45;;
24743;SDS011;12844;52.110;5.548;2022-12-07T07:32:37;1.63;;;0.60;;
24743;SDS011;12844;52.110;5.548;2022-12-07T07:35:02;1.77;;;0.50;;
24743;SDS011;12844;52.110;5.548;2022-12-07T07:37:28;1.45;;;0.52;;
24743;SDS011;12844;52.110;5.548;2022-12-07T07:39:54;0.90;;;0.30;;
24743;SDS011;12844;52.110;5.548;2022-12-07T07:42:19;0.98;;;0.50;;
24743;SDS011;12844;52.110;5.548;2022-12-07T07:44:45;1.38;;;0.43;;
24743;SDS011;12844;52.110;5.548;2022-12-07T07:47:10;1.00;;;0.40;;
24743;SDS011;12844;52.110;5.548;2022-12-07T07:49:36;0.98;;;0.50;;
24743;SDS011;12844;52.110;5.548;2022-12-07T07:52:02;0.93;;;0.50;;
24743;SDS011;12844;52.110;5.548;2022-12-07T07:54:28;1.00;;;0.60;;
24743;SDS011;12844;52.110;5.548;2022-12-07T07:56:53;1.70;;;0.85;;
24743;SDS011;12844;52.110;5.548;2022-12-07T07:59:19;1.75;;;0.50;;
24743;SDS011;12844;52.110;5.548;2022-12-07T08:01:44;0.57;;;0.30;;
24743;SDS011;12844;52.110;5.548;2022-12-07T08:04:10;1.25;;;0.40;;
24743;SDS011;12844;52.110;5.548;2022-12-07T08:06:36;1.38;;;0.50;;
24743;SDS011;12844;52.110;5.548;2022-12-07T08:09:01;1.77;;;0.45;;
24743;SDS011;12844;52.110;5.548;2022-12-07T08:11:27;2.25;;;0.50;;
24743;SDS011;12844;52.110;5.548;2022-12-07T08:13:53;5.90;;;0.80;;
24743;SDS011;12844;52.110;5.548;2022-12-07T08:16:19;1.27;;;0.55;;
24743;SDS011;12844;52.110;5.548;2022-12-07T08:18:44;1.73;;;0.60;;
24743;SDS011;12844;52.110;5.548;2022-12-07T08:21:11;3.40;;;0.80;;
24743;SDS011;12844;52.110;5.548;2022-12-07T08:23:38;9.75;;;0.80;;
24743;SDS011;12844;52.110;5.548;2022-12-07T08:26:05;3.20;;;0.50;;
24743;SDS011;12844;52.110;5.548;2022-12-07T08:28:39;3.92;;;0.50;;
24743;SDS011;12844;52.110;5.548;2022-12-07T08:31:06;2.90;;;0.70;;
24743;SDS011;12844;52.110;5.548;2022-12-07T08:33:37;2.35;;;0.50;;
24743;SDS011;12844;52.110;5.548;2022-12-07T08:36:06;2.83;;;0.70;;
24743;SDS011;12844;52.110;5.548;2022-12-07T08:38:34;2.17;;;0.40;;
24743;SDS011;12844;52.110;5.548;2022-12-07T08:41:00;1.13;;;0.50;;
24743;SDS011;12844;52.110;5.548;2022-12-07T08:43:27;3.50;;;0.52;;
24743;SDS011;12844;52.110;5.548;2022-12-07T08:46:17;3.03;;;0.60;;
24743;SDS011;12844;52.110;5.548;2022-12-07T08:48:46;1.08;;;0.50;;
24743;SDS011;12844;52.110;5.548;2022-12-07T08:51:43;2.17;;;0.65;;
24743;SDS011;12844;52.110;5.548;2022-12-07T08:54:11;2.70;;;0.50;;
24743;SDS011;12844;52.110;5.548;2022-12-07T08:59:08;2.35;;;0.63;;
24743;SDS011;12844;52.110;5.548;2022-12-07T09:01:34;3.08;;;0.60;;
24743;SDS011;12844;52.110;5.548;2022-12-07T09:04:00;3.95;;;0.68;;
24743;SDS011;12844;52.110;5.548;2022-12-07T09:06:26;3.78;;;0.52;;
24743;SDS011;12844;52.110;5.548;2022-12-07T09:08:53;2.42;;;0.60;;
24743;SDS011;12844;52.110;5.548;2022-12-07T09:11:23;2.80;;;0.50;;
24743;SDS011;12844;52.110;5.548;2022-12-07T09:13:48;2.00;;;0.52;;
24743;SDS011;12844;52.110;5.548;2022-12-07T09:16:14;2.05;;;0.60;;
24743;SDS011;12844;52.110;5.548;2022-12-07T09:18:39;1.38;;;0.40;;
24743;SDS011;12844;52.110;5.548;2022-12-07T09:21:05;2.72;;;0.50;;
24743;SDS011;12844;52.110;5.548;2022-12-07T09:23:30;3.42;;;0.50;;
24743;SDS011;12844;52.110;5.548;2022-12-07T09:26:00;3.03;;;0.70;;
24743;SDS011;12844;52.110;5.548;2022-12-07T09:28:26;5.90;;;0.95;;
24743;SDS011;12844;52.110;5.548;2022-12-07T09:30:52;6.95;;;1.10;;
24743;SDS011;12844;52.110;5.548;2022-12-07T09:33:17;7.65;;;0.88;;
24743;SDS011;12844;52.110;5.548;2022-12-07T09:35:44;6.72;;;1.42;;
24743;SDS011;12844;52.110;5.548;2022-12-07T09:38:10;4.65;;;0.80;;
24743;SDS011;12844;52.110;5.548;2022-12-07T09:40:36;6.40;;;0.90;;
24743;SDS011;12844;52.110;5.548;2022-12-07T09:43:02;8.93;;;1.42;;
24743;SDS011;12844;52.110;5.548;2022-12-07T09:45:32;10.60;;;1.13;;
24743;SDS011;12844;52.110;5.548;2022-12-07T09:48:00;10.93;;;1.42;;
24743;SDS011;12844;52.110;5.548;2022-12-07T09:50:27;11.02;;;1.20;;
24743;SDS011;12844;52.110;5.548;2022-12-07T09:52:54;7.13;;;1.00;;
24743;SDS011;12844;52.110;5.548;2022-12-07T09:55:31;6.65;;;1.02;;
24743;SDS011;12844;52.110;5.548;2022-12-07T09:57:58;11.90;;;1.15;;
24743;SDS011;12844;52.110;5.548;2022-12-07T10:00:24;4.80;;;0.88;;
24743;SDS011;12844;52.110;5.548;2022-12-07T10:05:24;10.80;;;1.13;;
24743;SDS011;12844;52.110;5.548;2022-12-07T10:07:51;3.92;;;0.60;;
24743;SDS011;12844;52.110;5.548;2022-12-07T10:10:23;5.55;;;1.27;;
24743;SDS011;12844;52.110;5.548;2022-12-07T10:12:58;7.93;;;1.05;;
24743;SDS011;12844;52.110;5.548;2022-12-07T10:18:18;6.18;;;1.08;;
24743;SDS011;12844;52.110;5.548;2022-12-07T10:20:45;5.88;;;0.80;;
24743;SDS011;12844;52.110;5.548;2022-12-07T10:23:14;6.28;;;0.88;;
24743;SDS011;12844;52.110;5.548;2022-12-07T10:25:41;5.65;;;0.90;;
24743;SDS011;12844;52.110;5.548;2022-12-07T10:30:33;7.43;;;0.93;;
24743;SDS011;12844;52.110;5.548;2022-12-07T10:33:37;6.35;;;0.85;;
24743;SDS011;12844;52.110;5.548;2022-12-07T10:36:20;5.78;;;0.82;;
24743;SDS011;12844;52.110;5.548;2022-12-07T10:39:14;4.70;;;1.13;;
24743;SDS011;12844;52.110;5.548;2022-12-07T10:41:54;5.97;;;1.00;;
24743;SDS011;12844;52.110;5.548;2022-12-07T10:44:28;4.35;;;0.68;;
24743;SDS011;12844;52.110;5.548;2022-12-07T10:49:35;6.20;;;1.00;;
24743;SDS011;12844;52.110;5.548;2022-12-07T10:54:56;4.07;;;0.70;;
24743;SDS011;12844;52.110;5.548;2022-12-07T10:58:00;4.05;;;1.00;;
24743;SDS011;12844;52.110;5.548;2022-12-07T11:01:36;5.43;;;0.80;;
24743;SDS011;12844;52.110;5.548;2022-12-07T11:06:54;2.30;;;0.70;;
24743;SDS011;12844;52.110;5.548;2022-12-07T11:12:09;2.50;;;0.68;;
24743;SDS011;12844;52.110;5.548;2022-12-07T11:17:49;5.50;;;0.80;;
24743;SDS011;12844;52.110;5.548;2022-12-07T11:20:27;2.80;;;0.90;;
24743;SDS011;12844;52.110;5.548;2022-12-07T11:33:47;5.68;;;0.52;;
24743;SDS011;12844;52.110;5.548;2022-12-07T11:36:43;4.28;;;0.60;;
24743;SDS011;12844;52.110;5.548;2022-12-07T11:39:19;5.18;;;0.98;;
24743;SDS011;12844;52.110;5.548;2022-12-07T11:41:46;2.90;;;0.77;;
24743;SDS011;12844;52.110;5.548;2022-12-07T11:46:50;3.20;;;0.70;;
24743;SDS011;12844;52.110;5.548;2022-12-07T11:52:37;6.00;;;0.77;;
24743;SDS011;12844;52.110;5.548;2022-12-07T11:55:19;5.78;;;0.68;;
24743;SDS011;12844;52.110;5.548;2022-12-07T11:57:56;5.25;;;0.75;;
24743;SDS011;12844;52.110;5.548;2022-12-07T12:00:29;2.10;;;0.50;;
24743;SDS011;12844;52.110;5.548;2022-12-07T12:03:05;3.22;;;0.60;;
24743;SDS011;12844;52.110;5.548;2022-12-07T12:05:39;4.15;;;0.70;;
24743;SDS011;12844;52.110;5.548;2022-12-07T12:11:08;2.17;;;0.50;;
24743;SDS011;12844;52.110;5.548;2022-12-07T12:22:41;5.78;;;0.90;;
24743;SDS011;12844;52.110;5.548;2022-12-07T12:28:18;6.38;;;0.90;;
24743;SDS011;12844;52.110;5.548;2022-12-07T12:31:04;3.42;;;0.70;;
24743;SDS011;12844;52.110;5.548;2022-12-07T12:33:33;4.43;;;0.68;;
24743;SDS011;12844;52.110;5.548;2022-12-07T12:46:54;4.35;;;0.88;;
24743;SDS011;12844;52.110;5.548;2022-12-07T12:49:34;1.98;;;0.60;;
24743;SDS011;12844;52.110;5.548;2022-12-07T12:54:57;4.75;;;0.95;;
24743;SDS011;12844;52.110;5.548;2022-12-07T12:57:37;4.30;;;1.02;;
24743;SDS011;12844;52.110;5.548;2022-12-07T13:00:14;4.07;;;0.70;;
24743;SDS011;12844;52.110;5.548;2022-12-07T13:02:52;2.88;;;0.55;;
24743;SDS011;12844;52.110;5.548;2022-12-07T13:17:58;5.70;;;0.80;;
24743;SDS011;12844;52.110;5.548;2022-12-07T13:23:10;4.47;;;0.77;;
24743;SDS011;12844;52.110;5.548;2022-12-07T13:25:38;7.20;;;0.95;;
24743;SDS011;12844;52.110;5.548;2022-12-07T13:28:19;7.97;;;0.90;;
24743;SDS011;12844;52.110;5.548;2022-12-07T13:31:00;5.57;;;0.88;;
24743;SDS011;12844;52.110;5.548;2022-12-07T13:33:34;6.55;;;1.10;;
24743;SDS011;12844;52.110;5.548;2022-12-07T13:36:00;7.38;;;1.48;;
24743;SDS011;12844;52.110;5.548;2022-12-07T15:50:35;1.85;;;0.52;;
24743;SDS011;12844;52.110;5.548;2022-12-07T15:53:01;1.60;;;0.60;;
24743;SDS011;12844;52.110;5.548;2022-12-07T15:55:26;1.48;;;0.65;;
24743;SDS011;12844;52.110;5.548;2022-12-07T15:57:52;1.52;;;0.57;;
24743;SDS011;12844;52.110;5.548;2022-12-07T16:00:18;2.70;;;0.50;;
24743;SDS011;12844;52.110;5.548;2022-12-07T16:02:44;1.27;;;0.57;;
24743;SDS011;12844;52.110;5.548;2022-12-07T16:05:09;1.77;;;0.68;;
24743;SDS011;12844;52.110;5.548;2022-12-07T16:07:35;0.70;;;0.40;;
24743;SDS011;12844;52.110;5.548;2022-12-07T16:10:00;1.65;;;0.60;;
24743;SDS011;12844;52.110;5.548;2022-12-07T16:12:26;1.48;;;0.52;;
24743;SDS011;12844;52.110;5.548;2022-12-07T16:14:51;0.95;;;0.40;;
24743;SDS011;12844;52.110;5.548;2022-12-07T16:17:17;2.53;;;0.70;;
24743;SDS011;12844;52.110;5.548;2022-12-07T16:19:42;1.33;;;0.57;;
24743;SDS011;12844;52.110;5.548;2022-12-07T16:22:08;1.88;;;0.50;;
24743;SDS011;12844;52.110;5.548;2022-12-07T16:24:33;1.95;;;0.70;;
24743;SDS011;12844;52.110;5.548;2022-12-07T16:26:59;2.17;;;0.50;;
24743;SDS011;12844;52.110;5.548;2022-12-07T16:29:24;1.73;;;0.60;;
24743;SDS011;12844;52.110;5.548;2022-12-07T16:31:50;1.60;;;0.47;;
24743;SDS011;12844;52.110;5.548;2022-12-07T16:34:16;2.50;;;0.70;;
24743;SDS011;12844;52.110;5.548;2022-12-07T16:36:42;2.75;;;1.05;;
24743;SDS011;12844;52.110;5.548;2022-12-07T16:39:08;2.63;;;0.50;;
24743;SDS011;12844;52.110;5.548;2022-12-07T16:41:34;1.55;;;0.50;;
24743;SDS011;12844;52.110;5.548;2022-12-07T16:44:04;1.80;;;0.50;;
24743;SDS011;12844;52.110;5.548;2022-12-07T16:46:35;1.53;;;0.50;;
24743;SDS011;12844;52.110;5.548;2022-12-07T16:49:01;1.38;;;0.47;;
24743;SDS011;12844;52.110;5.548;2022-12-07T16:51:28;1.48;;;0.50;;
24743;SDS011;12844;52.110;5.548;2022-12-07T16:53:54;2.13;;;0.60;;
24743;SDS011;12844;52.110;5.548;2022-12-07T16:56:19;1.13;;;0.60;;
24743;SDS011;12844;52.110;5.548;2022-12-07T16:58:45;2.10;;;0.57;;
24743;SDS011;12844;52.110;5.548;2022-12-07T17:01:13;1.63;;;0.50;;
24743;SDS011;12844;52.110;5.548;2022-12-07T17:03:44;1.58;;;0.50;;
24743;SDS011;12844;52.110;5.548;2022-12-07T17:06:12;2.00;;;0.50;;
24743;SDS011;12844;52.110;5.548;2022-12-07T17:08:47;1.45;;;0.57;;
24743;SDS011;12844;52.110;5.548;2022-12-07T17:11:16;0.70;;;0.40;;
24743;SDS011;12844;52.110;5.548;2022-12-07T17:13:46;1.13;;;0.47;;
24743;SDS011;12844;52.110;5.548;2022-12-07T17:16:31;0.90;;;0.50;;
24743;SDS011;12844;52.110;5.548;2022-12-07T17:18:57;1.90;;;0.50;;
24743;SDS011;12844;52.110;5.548;2022-12-07T17:21:23;1.75;;;0.60;;
24743;SDS011;12844;52.110;5.548;2022-12-07T17:23:49;0.40;;;0.40;;
24743;SDS011;12844;52.110;5.548;2022-12-07T17:26:16;1.30;;;0.60;;
24743;SDS011;12844;52.110;5.548;2022-12-07T17:28:46;1.70;;;0.60;;
24743;SDS011;12844;52.110;5.548;2022-12-07T17:31:14;0.82;;;0.63;;
24743;SDS011;12844;52.110;5.548;2022-12-07T17:33:41;1.58;;;0.45;;
24743;SDS011;12844;52.110;5.548;2022-12-07T17:36:11;0.90;;;0.60;;
24743;SDS011;12844;52.110;5.548;2022-12-07T17:38:57;1.45;;;0.60;;
24743;SDS011;12844;52.110;5.548;2022-12-07T17:41:24;1.08;;;0.50;;
24743;SDS011;12844;52.110;5.548;2022-12-07T17:44:10;1.38;;;0.57;;
24743;SDS011;12844;52.110;5.548;2022-12-07T17:46:37;0.75;;;0.50;;
24743;SDS011;12844;52.110;5.548;2022-12-07T17:49:03;1.60;;;0.50;;
24743;SDS011;12844;52.110;5.548;2022-12-07T17:51:30;0.90;;;0.60;;
24743;SDS011;12844;52.110;5.548;2022-12-07T17:54:14;1.02;;;0.50;;
24743;SDS011;12844;52.110;5.548;2022-12-07T17:56:40;1.02;;;0.60;;
24743;SDS011;12844;52.110;5.548;2022-12-07T17:59:05;1.67;;;0.68;;
24743;SDS011;12844;52.110;5.548;2022-12-07T18:01:31;1.33;;;0.60;;
24743;SDS011;12844;52.110;5.548;2022-12-07T18:03:57;1.98;;;0.75;;
24743;SDS011;12844;52.110;5.548;2022-12-07T18:06:23;1.63;;;0.70;;
24743;SDS011;12844;52.110;5.548;2022-12-07T18:08:49;1.35;;;0.60;;
24743;SDS011;12844;52.110;5.548;2022-12-07T18:11:14;1.50;;;0.70;;
24743;SDS011;12844;52.110;5.548;2022-12-07T18:13:40;0.85;;;0.50;;
24743;SDS011;12844;52.110;5.548;2022-12-07T18:16:07;1.10;;;0.60;;
24743;SDS011;12844;52.110;5.548;2022-12-07T18:18:41;1.90;;;0.50;;
24743;SDS011;12844;52.110;5.548;2022-12-07T18:21:08;1.05;;;0.50;;
24743;SDS011;12844;52.110;5.548;2022-12-07T18:23:38;1.17;;;0.50;;
24743;SDS011;12844;52.110;5.548;2022-12-07T18:26:04;0.52;;;0.52;;
24743;SDS011;12844;52.110;5.548;2022-12-07T18:28:29;1.10;;;0.52;;
24743;SDS011;12844;52.110;5.548;2022-12-07T18:30:55;0.90;;;0.60;;
24743;SDS011;12844;52.110;5.548;2022-12-07T18:33:20;1.83;;;0.60;;
24743;SDS011;12844;52.110;5.548;2022-12-07T18:35:46;1.88;;;0.60;;
24743;SDS011;12844;52.110;5.548;2022-12-07T18:38:12;1.55;;;0.85;;
24743;SDS011;12844;52.110;5.548;2022-12-07T18:40:39;1.33;;;0.60;;
24743;SDS011;12844;52.110;5.548;2022-12-07T18:43:06;1.80;;;0.73;;
24743;SDS011;12844;52.110;5.548;2022-12-07T18:45:35;0.80;;;0.50;;
24743;SDS011;12844;52.110;5.548;2022-12-07T18:48:02;1.13;;;0.60;;
24743;SDS011;12844;52.110;5.548;2022-12-07T18:50:28;1.52;;;0.60;;
24743;SDS011;12844;52.110;5.548;2022-12-07T18:53:01;2.15;;;0.60;;
24743;SDS011;12844;52.110;5.548;2022-12-07T18:55:28;1.42;;;0.63;;
24743;SDS011;12844;52.110;5.548;2022-12-07T18:57:55;1.83;;;0.70;;
24743;SDS011;12844;52.110;5.548;2022-12-07T19:00:21;1.10;;;0.65;;
24743;SDS011;12844;52.110;5.548;2022-12-07T19:02:48;1.50;;;0.60;;
24743;SDS011;12844;52.110;5.548;2022-12-07T19:05:15;1.23;;;0.52;;
24743;SDS011;12844;52.110;5.548;2022-12-07T19:07:42;2.00;;;0.80;;
24743;SDS011;12844;52.110;5.548;2022-12-07T19:10:08;1.33;;;0.70;;
24743;SDS011;12844;52.110;5.548;2022-12-07T19:12:34;1.48;;;0.60;;
24743;SDS011;12844;52.110;5.548;2022-12-07T19:15:00;1.20;;;0.70;;
24743;SDS011;12844;52.110;5.548;2022-12-07T19:17:26;0.80;;;0.47;;
24743;SDS011;12844;52.110;5.548;2022-12-07T19:19:52;2.08;;;0.70;;